Route Details

Aircraft Information
Group: North America Fleet
Types: B738, B752, B762, B763
Route Data
Distance: 921nm
Duration: 3h 00m
Origin METAR: KLAL 170515Z AUTO 00000KT 10SM CLR 24/23 A2993 RMK AO2 T02370234
Dest. METAR: KRFD 171054Z 00000KT 10SM FEW250 13/11 A3015 RMK AO2 SLP207 T01330111
Freight Data
(for Aug 18, 2022)
Load Factor:
45%
Manifested Cargo: 31,586lbs
Financial History
Total Freight: 140,696lbs
Average Load: 0lbs/flt
Fuel Used: 41,030lbs
Avg. Fuel Used: 0lbs/flt
Fuel Expense: $27,527
Avg. Fuel Expense: $0
Avg. Fuel Cost: $0/lbs
Total Gross Income: $358,775
Pilot Pay: $498
Total Expenses: $49,034
Total Revenue: $280,898
Average Revenue: $0

Capitol Logistics 304




KLAL
Lakeland Linder Regional Airport
Lakeland, Florida
KRFD
Chicago/Rockford International Airport
Rockford, Illinois

Activity Log

Date Flight Route Aircraft Duration
07/03/2022 CPX7407 DCT NITTS DCT WILON DCT CAMJO DCT MCN DCT PXV J73 GUIDO DCT JOT DCT B752 2h 39m
06/21/2022 CPX7407 DCT NITTS DCT WILON DCT CAMJO DCT MCN DCT PXV J73 GUIDO DCT JOT DCT B763 2h 31m